sensor_id;sensor_type;location;lat;lon;timestamp;temperature;humidity
14411;DHT22;7290;50.854;4.354;2023-02-17T00:00:50;12.10;99.90
14411;DHT22;7290;50.854;4.354;2023-02-17T00:03:16;12.10;99.90
14411;DHT22;7290;50.854;4.354;2023-02-17T00:05:42;12.10;99.90
14411;DHT22;7290;50.854;4.354;2023-02-17T00:08:08;12.20;99.90
14411;DHT22;7290;50.854;4.354;2023-02-17T00:10:35;12.20;99.90
14411;DHT22;7290;50.854;4.354;2023-02-17T00:13:01;12.30;99.90
14411;DHT22;7290;50.854;4.354;2023-02-17T00:15:27;12.20;99.90
14411;DHT22;7290;50.854;4.354;2023-02-17T00:17:53;12.20;99.90
14411;DHT22;7290;50.854;4.354;2023-02-17T00:20:19;12.10;99.90
14411;DHT22;7290;50.854;4.354;2023-02-17T00:22:45;12.10;99.90
14411;DHT22;7290;50.854;4.354;2023-02-17T00:25:11;12.20;99.90
14411;DHT22;7290;50.854;4.354;2023-02-17T00:27:38;12.20;99.90
14411;DHT22;7290;50.854;4.354;2023-02-17T00:30:05;12.20;99.90
14411;DHT22;7290;50.854;4.354;2023-02-17T00:32:31;12.20;99.90
14411;DHT22;7290;50.854;4.354;2023-02-17T00:34:57;12.20;99.90
14411;DHT22;7290;50.854;4.354;2023-02-17T00:37:24;12.20;99.90
14411;DHT22;7290;50.854;4.354;2023-02-17T00:39:50;12.20;99.90
14411;DHT22;7290;50.854;4.354;2023-02-17T00:42:16;12.30;99.90
14411;DHT22;7290;50.854;4.354;2023-02-17T00:44:43;12.30;99.90
14411;DHT22;7290;50.854;4.354;2023-02-17T00:47:09;12.30;99.90
14411;DHT22;7290;50.854;4.354;2023-02-17T00:49:35;12.30;99.90
14411;DHT22;7290;50.854;4.354;2023-02-17T00:52:01;12.30;99.90
14411;DHT22;7290;50.854;4.354;2023-02-17T00:54:27;12.30;99.90
14411;DHT22;7290;50.854;4.354;2023-02-17T00:56:54;12.20;99.90
14411;DHT22;7290;50.854;4.354;2023-02-17T00:59:20;12.20;99.90
14411;DHT22;7290;50.854;4.354;2023-02-17T01:01:46;12.10;99.90
14411;DHT22;7290;50.854;4.354;2023-02-17T01:04:12;12.10;99.90
14411;DHT22;7290;50.854;4.354;2023-02-17T01:06:39;12.10;99.90
14411;DHT22;7290;50.854;4.354;2023-02-17T01:09:10;12.10;99.90
14411;DHT22;7290;50.854;4.354;2023-02-17T01:11:37;12.20;99.90
14411;DHT22;7290;50.854;4.354;2023-02-17T01:14:05;12.10;99.90
14411;DHT22;7290;50.854;4.354;2023-02-17T01:16:33;12.00;99.90
14411;DHT22;7290;50.854;4.354;2023-02-17T01:19:04;12.00;99.90
14411;DHT22;7290;50.854;4.354;2023-02-17T01:21:31;12.10;99.90
14411;DHT22;7290;50.854;4.354;2023-02-17T01:23:59;12.10;99.90
14411;DHT22;7290;50.854;4.354;2023-02-17T01:26:28;12.20;99.90
14411;DHT22;7290;50.854;4.354;2023-02-17T01:28:54;12.20;99.90
14411;DHT22;7290;50.854;4.354;2023-02-17T01:31:21;12.10;99.90
14411;DHT22;7290;50.854;4.354;2023-02-17T01:33:48;12.00;99.90
14411;DHT22;7290;50.854;4.354;2023-02-17T01:36:16;12.00;99.90
14411;DHT22;7290;50.854;4.354;2023-02-17T01:38:42;12.00;99.90
14411;DHT22;7290;50.854;4.354;2023-02-17T01:41:11;11.90;99.90
14411;DHT22;7290;50.854;4.354;2023-02-17T01:43:38;11.90;99.90
14411;DHT22;7290;50.854;4.354;2023-02-17T01:46:05;12.00;99.90
14411;DHT22;7290;50.854;4.354;2023-02-17T01:48:34;11.90;99.90
14411;DHT22;7290;50.854;4.354;2023-02-17T01:51:04;11.80;99.90
14411;DHT22;7290;50.854;4.354;2023-02-17T01:53:35;11.80;99.90
14411;DHT22;7290;50.854;4.354;2023-02-17T01:56:02;11.90;99.90
14411;DHT22;7290;50.854;4.354;2023-02-17T01:58:30;11.90;99.90
14411;DHT22;7290;50.854;4.354;2023-02-17T02:00:58;11.90;99.90
14411;DHT22;7290;50.854;4.354;2023-02-17T02:03:26;11.80;99.90
14411;DHT22;7290;50.854;4.354;2023-02-17T02:05:54;11.70;99.90
14411;DHT22;7290;50.854;4.354;2023-02-17T02:08:20;11.70;99.90
14411;DHT22;7290;50.854;4.354;2023-02-17T02:10:47;11.70;99.90
14411;DHT22;7290;50.854;4.354;2023-02-17T02:13:13;11.70;99.90
14411;DHT22;7290;50.854;4.354;2023-02-17T02:15:42;11.80;99.90
14411;DHT22;7290;50.854;4.354;2023-02-17T02:18:18;11.70;99.90
14411;DHT22;7290;50.854;4.354;2023-02-17T02:24:17;11.60;99.90
14411;DHT22;7290;50.854;4.354;2023-02-17T02:27:14;11.60;99.90
14411;DHT22;7290;50.854;4.354;2023-02-17T02:30:02;11.60;99.90
14411;DHT22;7290;50.854;4.354;2023-02-17T02:32:44;11.60;99.90
14411;DHT22;7290;50.854;4.354;2023-02-17T02:35:15;11.60;99.90
14411;DHT22;7290;50.854;4.354;2023-02-17T02:37:48;11.60;99.90
14411;DHT22;7290;50.854;4.354;2023-02-17T02:40:17;11.60;99.90
14411;DHT22;7290;50.854;4.354;2023-02-17T02:42:45;11.60;99.90
14411;DHT22;7290;50.854;4.354;2023-02-17T02:45:12;11.50;99.90
14411;DHT22;7290;50.854;4.354;2023-02-17T02:47:44;11.50;99.90
14411;DHT22;7290;50.854;4.354;2023-02-17T02:50:12;11.50;99.90
14411;DHT22;7290;50.854;4.354;2023-02-17T02:52:55;11.50;99.90
14411;DHT22;7290;50.854;4.354;2023-02-17T02:55:36;11.50;99.90
14411;DHT22;7290;50.854;4.354;2023-02-17T02:58:14;11.40;99.90
14411;DHT22;7290;50.854;4.354;2023-02-17T03:00:48;11.40;99.90
14411;DHT22;7290;50.854;4.354;2023-02-17T03:03:22;11.40;99.90
14411;DHT22;7290;50.854;4.354;2023-02-17T03:05:54;11.50;99.90
14411;DHT22;7290;50.854;4.354;2023-02-17T03:08:27;11.60;99.90
14411;DHT22;7290;50.854;4.354;2023-02-17T03:10:54;11.50;99.90
14411;DHT22;7290;50.854;4.354;2023-02-17T03:13:20;11.50;99.90
14411;DHT22;7290;50.854;4.354;2023-02-17T03:15:47;11.50;99.90
14411;DHT22;7290;50.854;4.354;2023-02-17T03:18:14;11.50;99.90
14411;DHT22;7290;50.854;4.354;2023-02-17T03:20:44;11.40;99.90
14411;DHT22;7290;50.854;4.354;2023-02-17T03:23:10;11.50;99.90
14411;DHT22;7290;50.854;4.354;2023-02-17T03:25:36;11.50;99.90
14411;DHT22;7290;50.854;4.354;2023-02-17T03:28:03;11.50;99.90
14411;DHT22;7290;50.854;4.354;2023-02-17T03:30:29;11.50;99.90
14411;DHT22;7290;50.854;4.354;2023-02-17T03:32:55;11.50;99.90
14411;DHT22;7290;50.854;4.354;2023-02-17T03:35:21;11.50;99.90
14411;DHT22;7290;50.854;4.354;2023-02-17T03:37:48;11.60;99.90
14411;DHT22;7290;50.854;4.354;2023-02-17T03:40:14;11.50;99.90
14411;DHT22;7290;50.854;4.354;2023-02-17T03:42:40;11.40;99.90
14411;DHT22;7290;50.854;4.354;2023-02-17T03:45:06;11.50;99.90
14411;DHT22;7290;50.854;4.354;2023-02-17T03:47:32;11.40;99.90
14411;DHT22;7290;50.854;4.354;2023-02-17T03:49:58;11.40;99.90
14411;DHT22;7290;50.854;4.354;2023-02-17T03:52:24;11.40;99.90
14411;DHT22;7290;50.854;4.354;2023-02-17T03:54:51;11.40;99.90
14411;DHT22;7290;50.854;4.354;2023-02-17T03:57:17;11.40;99.90
14411;DHT22;7290;50.854;4.354;2023-02-17T03:59:44;11.40;99.90
14411;DHT22;7290;50.854;4.354;2023-02-17T04:02:10;11.30;99.90
14411;DHT22;7290;50.854;4.354;2023-02-17T04:04:36;11.30;99.90
14411;DHT22;7290;50.854;4.354;2023-02-17T04:07:03;11.40;99.90
14411;DHT22;7290;50.854;4.354;2023-02-17T04:09:29;11.50;99.90
14411;DHT22;7290;50.854;4.354;2023-02-17T04:11:56;11.40;99.90
14411;DHT22;7290;50.854;4.354;2023-02-17T04:14:22;11.50;99.90
14411;DHT22;7290;50.854;4.354;2023-02-17T04:16:48;11.40;99.90
14411;DHT22;7290;50.854;4.354;2023-02-17T04:19:14;11.40;99.90
14411;DHT22;7290;50.854;4.354;2023-02-17T04:21:40;11.30;99.90
14411;DHT22;7290;50.854;4.354;2023-02-17T04:24:06;11.30;99.90
14411;DHT22;7290;50.854;4.354;2023-02-17T04:26:32;11.30;99.90
14411;DHT22;7290;50.854;4.354;2023-02-17T04:28:59;11.30;99.90
14411;DHT22;7290;50.854;4.354;2023-02-17T04:31:25;11.30;99.90
14411;DHT22;7290;50.854;4.354;2023-02-17T04:33:52;11.40;99.90
14411;DHT22;7290;50.854;4.354;2023-02-17T04:36:18;11.40;99.90
14411;DHT22;7290;50.854;4.354;2023-02-17T04:38:44;11.30;99.90
14411;DHT22;7290;50.854;4.354;2023-02-17T04:41:10;11.30;99.90
14411;DHT22;7290;50.854;4.354;2023-02-17T04:43:36;11.30;99.90
14411;DHT22;7290;50.854;4.354;2023-02-17T04:46:03;11.30;99.90
14411;DHT22;7290;50.854;4.354;2023-02-17T04:48:29;11.20;99.90
14411;DHT22;7290;50.854;4.354;2023-02-17T04:50:55;11.20;99.90
14411;DHT22;7290;50.854;4.354;2023-02-17T04:53:21;11.30;99.90
14411;DHT22;7290;50.854;4.354;2023-02-17T04:55:48;11.30;99.90
14411;DHT22;7290;50.854;4.354;2023-02-17T04:58:15;11.30;99.90
14411;DHT22;7290;50.854;4.354;2023-02-17T05:00:41;11.40;99.90
14411;DHT22;7290;50.854;4.354;2023-02-17T05:03:08;11.30;99.90
14411;DHT22;7290;50.854;4.354;2023-02-17T05:05:34;11.30;99.90
14411;DHT22;7290;50.854;4.354;2023-02-17T05:08:00;11.30;99.90
14411;DHT22;7290;50.854;4.354;2023-02-17T05:10:26;11.30;99.90
14411;DHT22;7290;50.854;4.354;2023-02-17T05:12:52;11.40;99.90
14411;DHT22;7290;50.854;4.354;2023-02-17T05:15:18;11.30;99.90
14411;DHT22;7290;50.854;4.354;2023-02-17T05:17:45;11.30;99.90
14411;DHT22;7290;50.854;4.354;2023-02-17T05:20:12;11.30;99.90
14411;DHT22;7290;50.854;4.354;2023-02-17T05:22:38;11.20;99.90
14411;DHT22;7290;50.854;4.354;2023-02-17T05:25:04;11.20;99.90
14411;DHT22;7290;50.854;4.354;2023-02-17T05:27:30;11.20;99.90
14411;DHT22;7290;50.854;4.354;2023-02-17T05:29:56;11.20;99.90
14411;DHT22;7290;50.854;4.354;2023-02-17T05:32:22;11.30;99.90
14411;DHT22;7290;50.854;4.354;2023-02-17T05:34:49;11.30;99.90
14411;DHT22;7290;50.854;4.354;2023-02-17T05:37:18;11.40;99.90
14411;DHT22;7290;50.854;4.354;2023-02-17T05:39:44;11.30;99.90
14411;DHT22;7290;50.854;4.354;2023-02-17T05:42:10;11.30;99.90
14411;DHT22;7290;50.854;4.354;2023-02-17T05:44:36;11.30;99.90
14411;DHT22;7290;50.854;4.354;2023-02-17T05:47:03;11.20;99.90
14411;DHT22;7290;50.854;4.354;2023-02-17T05:49:29;11.30;99.90
14411;DHT22;7290;50.854;4.354;2023-02-17T05:51:55;11.30;99.90
14411;DHT22;7290;50.854;4.354;2023-02-17T05:54:22;11.20;99.90
14411;DHT22;7290;50.854;4.354;2023-02-17T05:56:48;11.20;99.90
14411;DHT22;7290;50.854;4.354;2023-02-17T05:59:14;11.30;99.90
14411;DHT22;7290;50.854;4.354;2023-02-17T06:01:40;11.30;99.90
14411;DHT22;7290;50.854;4.354;2023-02-17T06:04:06;11.40;99.90
14411;DHT22;7290;50.854;4.354;2023-02-17T06:06:32;11.30;99.90
14411;DHT22;7290;50.854;4.354;2023-02-17T06:08:58;11.30;99.90
14411;DHT22;7290;50.854;4.354;2023-02-17T06:11:24;11.30;99.90
14411;DHT22;7290;50.854;4.354;2023-02-17T06:13:50;11.20;99.90
14411;DHT22;7290;50.854;4.354;2023-02-17T06:16:17;11.20;99.90
14411;DHT22;7290;50.854;4.354;2023-02-17T06:18:43;11.20;99.90
14411;DHT22;7290;50.854;4.354;2023-02-17T06:21:09;11.30;99.90
14411;DHT22;7290;50.854;4.354;2023-02-17T06:23:35;11.30;99.90
14411;DHT22;7290;50.854;4.354;2023-02-17T06:26:01;11.20;99.90
14411;DHT22;7290;50.854;4.354;2023-02-17T06:28:28;11.20;99.90
14411;DHT22;7290;50.854;4.354;2023-02-17T06:30:54;11.20;99.90
14411;DHT22;7290;50.854;4.354;2023-02-17T06:33:20;11.20;99.90
14411;DHT22;7290;50.854;4.354;2023-02-17T06:35:47;11.30;99.90
14411;DHT22;7290;50.854;4.354;2023-02-17T06:38:14;11.30;99.90
14411;DHT22;7290;50.854;4.354;2023-02-17T06:40:40;11.30;99.90
14411;DHT22;7290;50.854;4.354;2023-02-17T06:43:06;11.20;99.90
14411;DHT22;7290;50.854;4.354;2023-02-17T06:45:33;11.20;99.90
14411;DHT22;7290;50.854;4.354;2023-02-17T06:47:59;11.20;99.90
14411;DHT22;7290;50.854;4.354;2023-02-17T06:50:25;11.20;99.90
14411;DHT22;7290;50.854;4.354;2023-02-17T06:52:51;11.20;99.90
14411;DHT22;7290;50.854;4.354;2023-02-17T06:55:17;11.20;99.90
14411;DHT22;7290;50.854;4.354;2023-02-17T06:57:43;11.20;99.90
14411;DHT22;7290;50.854;4.354;2023-02-17T07:00:10;11.20;99.90
14411;DHT22;7290;50.854;4.354;2023-02-17T07:02:37;11.30;99.90
14411;DHT22;7290;50.854;4.354;2023-02-17T07:05:04;11.40;99.90
14411;DHT22;7290;50.854;4.354;2023-02-17T07:07:31;11.30;99.90
14411;DHT22;7290;50.854;4.354;2023-02-17T07:09:57;11.30;99.90
14411;DHT22;7290;50.854;4.354;2023-02-17T07:12:23;11.30;99.90
14411;DHT22;7290;50.854;4.354;2023-02-17T07:14:49;11.40;99.90
14411;DHT22;7290;50.854;4.354;2023-02-17T07:17:15;11.30;99.90
14411;DHT22;7290;50.854;4.354;2023-02-17T07:19:42;11.40;99.90
14411;DHT22;7290;50.854;4.354;2023-02-17T07:22:08;11.40;99.90
14411;DHT22;7290;50.854;4.354;2023-02-17T07:24:34;11.30;99.90
14411;DHT22;7290;50.854;4.354;2023-02-17T07:27:00;11.40;99.90
14411;DHT22;7290;50.854;4.354;2023-02-17T07:29:27;11.40;99.90
14411;DHT22;7290;50.854;4.354;2023-02-17T07:31:53;11.40;99.90
14411;DHT22;7290;50.854;4.354;2023-02-17T07:34:20;11.50;99.90
14411;DHT22;7290;50.854;4.354;2023-02-17T07:36:47;11.50;99.90
14411;DHT22;7290;50.854;4.354;2023-02-17T07:39:14;11.50;99.90
14411;DHT22;7290;50.854;4.354;2023-02-17T07:41:41;11.50;99.90
14411;DHT22;7290;50.854;4.354;2023-02-17T07:44:07;11.40;99.90
14411;DHT22;7290;50.854;4.354;2023-02-17T07:46:34;11.50;99.90
14411;DHT22;7290;50.854;4.354;2023-02-17T07:49:01;11.50;99.90
14411;DHT22;7290;50.854;4.354;2023-02-17T07:51:27;11.40;99.90
14411;DHT22;7290;50.854;4.354;2023-02-17T07:53:53;11.40;99.90
14411;DHT22;7290;50.854;4.354;2023-02-17T07:56:21;11.40;99.90
14411;DHT22;7290;50.854;4.354;2023-02-17T07:58:47;11.50;99.90
14411;DHT22;7290;50.854;4.354;2023-02-17T08:01:16;11.50;99.90
14411;DHT22;7290;50.854;4.354;2023-02-17T08:03:43;11.50;99.90
14411;DHT22;7290;50.854;4.354;2023-02-17T08:06:10;11.60;99.90
14411;DHT22;7290;50.854;4.354;2023-02-17T08:08:36;11.70;99.90
14411;DHT22;7290;50.854;4.354;2023-02-17T08:11:21;11.70;99.90
14411;DHT22;7290;50.854;4.354;2023-02-17T08:14:06;11.70;99.90
14411;DHT22;7290;50.854;4.354;2023-02-17T08:16:32;11.70;99.90
14411;DHT22;7290;50.854;4.354;2023-02-17T08:18:58;11.70;99.90
14411;DHT22;7290;50.854;4.354;2023-02-17T08:21:25;11.70;99.90
14411;DHT22;7290;50.854;4.354;2023-02-17T08:23:51;11.70;99.90
14411;DHT22;7290;50.854;4.354;2023-02-17T08:26:18;11.60;99.90
14411;DHT22;7290;50.854;4.354;2023-02-17T08:28:46;11.60;99.90
14411;DHT22;7290;50.854;4.354;2023-02-17T08:31:16;11.70;99.90
14411;DHT22;7290;50.854;4.354;2023-02-17T08:33:43;11.80;99.90
14411;DHT22;7290;50.854;4.354;2023-02-17T08:36:10;11.80;99.90
14411;DHT22;7290;50.854;4.354;2023-02-17T08:38:36;11.80;99.90
14411;DHT22;7290;50.854;4.354;2023-02-17T08:41:11;11.90;99.90
14411;DHT22;7290;50.854;4.354;2023-02-17T08:43:37;11.90;99.90
14411;DHT22;7290;50.854;4.354;2023-02-17T08:46:06;12.00;99.90
14411;DHT22;7290;50.854;4.354;2023-02-17T08:48:33;12.00;99.90
14411;DHT22;7290;50.854;4.354;2023-02-17T08:50:59;12.00;99.90
14411;DHT22;7290;50.854;4.354;2023-02-17T08:53:25;12.00;99.90
14411;DHT22;7290;50.854;4.354;2023-02-17T08:55:51;12.00;99.90
14411;DHT22;7290;50.854;4.354;2023-02-17T08:58:17;12.10;99.90
14411;DHT22;7290;50.854;4.354;2023-02-17T09:00:43;12.20;99.90
14411;DHT22;7290;50.854;4.354;2023-02-17T09:03:10;12.20;99.90
14411;DHT22;7290;50.854;4.354;2023-02-17T09:05:36;12.30;99.90
14411;DHT22;7290;50.854;4.354;2023-02-17T09:08:02;12.30;99.90
14411;DHT22;7290;50.854;4.354;2023-02-17T09:10:29;12.40;99.90
14411;DHT22;7290;50.854;4.354;2023-02-17T09:12:55;12.40;99.90
14411;DHT22;7290;50.854;4.354;2023-02-17T09:15:21;12.50;99.90
14411;DHT22;7290;50.854;4.354;2023-02-17T09:17:47;12.50;99.90
14411;DHT22;7290;50.854;4.354;2023-02-17T09:20:14;12.50;99.90
14411;DHT22;7290;50.854;4.354;2023-02-17T09:22:40;12.60;99.90
14411;DHT22;7290;50.854;4.354;2023-02-17T09:25:07;12.70;99.90
14411;DHT22;7290;50.854;4.354;2023-02-17T09:27:33;12.80;99.90
14411;DHT22;7290;50.854;4.354;2023-02-17T09:30:00;12.70;99.90
14411;DHT22;7290;50.854;4.354;2023-02-17T09:32:26;12.80;99.90
14411;DHT22;7290;50.854;4.354;2023-02-17T09:34:52;12.80;99.90
14411;DHT22;7290;50.854;4.354;2023-02-17T09:37:20;12.90;99.90
14411;DHT22;7290;50.854;4.354;2023-02-17T09:39:47;13.00;99.90
14411;DHT22;7290;50.854;4.354;2023-02-17T09:42:17;13.10;99.90
14411;DHT22;7290;50.854;4.354;2023-02-17T09:44:45;13.40;99.90
14411;DHT22;7290;50.854;4.354;2023-02-17T09:47:16;13.60;99.90
14411;DHT22;7290;50.854;4.354;2023-02-17T09:49:47;13.50;99.90
14411;DHT22;7290;50.854;4.354;2023-02-17T09:52:19;13.50;99.90
14411;DHT22;7290;50.854;4.354;2023-02-17T09:54:56;13.80;99.90
14411;DHT22;7290;50.854;4.354;2023-02-17T09:57:27;14.20;99.90
14411;DHT22;7290;50.854;4.354;2023-02-17T09:59:56;14.10;99.90
14411;DHT22;7290;50.854;4.354;2023-02-17T10:02:28;13.90;99.90
14411;DHT22;7290;50.854;4.354;2023-02-17T10:05:00;13.60;99.90
14411;DHT22;7290;50.854;4.354;2023-02-17T10:07:31;13.60;99.90
14411;DHT22;7290;50.854;4.354;2023-02-17T10:10:04;13.70;99.90
14411;DHT22;7290;50.854;4.354;2023-02-17T10:12:35;13.80;99.90
14411;DHT22;7290;50.854;4.354;2023-02-17T10:15:08;13.70;99.90
14411;DHT22;7290;50.854;4.354;2023-02-17T10:17:42;13.80;99.90
14411;DHT22;7290;50.854;4.354;2023-02-17T10:20:11;13.80;99.90
14411;DHT22;7290;50.854;4.354;2023-02-17T10:22:41;13.70;99.90
14411;DHT22;7290;50.854;4.354;2023-02-17T10:25:14;13.70;99.90
14411;DHT22;7290;50.854;4.354;2023-02-17T10:27:42;13.80;99.90
14411;DHT22;7290;50.854;4.354;2023-02-17T10:30:22;13.90;99.90
14411;DHT22;7290;50.854;4.354;2023-02-17T10:32:59;14.00;99.90
14411;DHT22;7290;50.854;4.354;2023-02-17T10:35:34;14.10;99.90
14411;DHT22;7290;50.854;4.354;2023-02-17T10:38:09;14.20;99.90
14411;DHT22;7290;50.854;4.354;2023-02-17T10:40:40;14.60;99.90
14411;DHT22;7290;50.854;4.354;2023-02-17T10:43:10;14.80;99.90
14411;DHT22;7290;50.854;4.354;2023-02-17T10:45:42;15.00;99.90
14411;DHT22;7290;50.854;4.354;2023-02-17T10:48:13;15.40;99.90
14411;DHT22;7290;50.854;4.354;2023-02-17T10:50:42;15.70;99.90
14411;DHT22;7290;50.854;4.354;2023-02-17T10:53:13;16.60;99.90
14411;DHT22;7290;50.854;4.354;2023-02-17T10:55:52;16.60;99.90
14411;DHT22;7290;50.854;4.354;2023-02-17T10:58:23;16.30;99.90
14411;DHT22;7290;50.854;4.354;2023-02-17T11:00:53;16.40;99.90
14411;DHT22;7290;50.854;4.354;2023-02-17T11:03:22;16.20;99.90
14411;DHT22;7290;50.854;4.354;2023-02-17T11:05:53;15.80;99.90
14411;DHT22;7290;50.854;4.354;2023-02-17T11:08:28;15.40;99.90
14411;DHT22;7290;50.854;4.354;2023-02-17T11:11:01;15.10;99.90
14411;DHT22;7290;50.854;4.354;2023-02-17T11:13:34;15.00;99.90
14411;DHT22;7290;50.854;4.354;2023-02-17T11:16:00;15.40;99.90
14411;DHT22;7290;50.854;4.354;2023-02-17T11:18:29;15.30;99.90
14411;DHT22;7290;50.854;4.354;2023-02-17T11:21:02;15.20;99.90
14411;DHT22;7290;50.854;4.354;2023-02-17T11:23:29;15.40;99.90
14411;DHT22;7290;50.854;4.354;2023-02-17T11:25:58;15.30;99.90
14411;DHT22;7290;50.854;4.354;2023-02-17T11:28:27;15.10;99.90
14411;DHT22;7290;50.854;4.354;2023-02-17T11:30:55;15.00;99.90
14411;DHT22;7290;50.854;4.354;2023-02-17T11:33:28;14.90;99.90
14411;DHT22;7290;50.854;4.354;2023-02-17T11:35:56;14.90;99.90
14411;DHT22;7290;50.854;4.354;2023-02-17T11:38:24;14.90;99.90
14411;DHT22;7290;50.854;4.354;2023-02-17T11:40:52;14.80;99.90
14411;DHT22;7290;50.854;4.354;2023-02-17T11:43:19;14.70;99.90
14411;DHT22;7290;50.854;4.354;2023-02-17T11:45:52;14.70;99.90
14411;DHT22;7290;50.854;4.354;2023-02-17T11:51:20;14.80;99.90
14411;DHT22;7290;50.854;4.354;2023-02-17T11:53:54;14.80;99.90
14411;DHT22;7290;50.854;4.354;2023-02-17T11:56:29;14.70;99.90
14411;DHT22;7290;50.854;4.354;2023-02-17T11:59:21;14.60;99.90
14411;DHT22;7290;50.854;4.354;2023-02-17T12:02:07;14.70;99.90
14411;DHT22;7290;50.854;4.354;2023-02-17T12:04:40;14.80;99.90
14411;DHT22;7290;50.854;4.354;2023-02-17T12:10:13;15.10;99.90
14411;DHT22;7290;50.854;4.354;2023-02-17T12:12:54;14.80;99.90
14411;DHT22;7290;50.854;4.354;2023-02-17T12:15:33;14.60;99.90
14411;DHT22;7290;50.854;4.354;2023-02-17T12:18:13;14.70;99.90
14411;DHT22;7290;50.854;4.354;2023-02-17T12:20:46;15.00;99.90
14411;DHT22;7290;50.854;4.354;2023-02-17T12:23:30;14.80;99.90
14411;DHT22;7290;50.854;4.354;2023-02-17T12:26:05;14.60;99.90
14411;DHT22;7290;50.854;4.354;2023-02-17T12:28:47;14.80;99.90
14411;DHT22;7290;50.854;4.354;2023-02-17T12:31:28;14.70;99.90
14411;DHT22;7290;50.854;4.354;2023-02-17T12:34:08;14.40;99.90
14411;DHT22;7290;50.854;4.354;2023-02-17T12:36:38;14.40;99.90
14411;DHT22;7290;50.854;4.354;2023-02-17T12:39:12;14.40;99.90
14411;DHT22;7290;50.854;4.354;2023-02-17T12:41:44;14.30;99.90
14411;DHT22;7290;50.854;4.354;2023-02-17T12:44:14;14.10;99.90
14411;DHT22;7290;50.854;4.354;2023-02-17T12:46:44;14.00;99.90
14411;DHT22;7290;50.854;4.354;2023-02-17T12:49:15;13.90;99.90
14411;DHT22;7290;50.854;4.354;2023-02-17T12:51:47;13.80;99.90
14411;DHT22;7290;50.854;4.354;2023-02-17T12:54:17;13.80;99.90
14411;DHT22;7290;50.854;4.354;2023-02-17T12:56:51;13.80;99.90
14411;DHT22;7290;50.854;4.354;2023-02-17T12:59:21;13.90;99.90
14411;DHT22;7290;50.854;4.354;2023-02-17T13:01:55;14.00;99.90
14411;DHT22;7290;50.854;4.354;2023-02-17T13:04:23;13.90;99.90
14411;DHT22;7290;50.854;4.354;2023-02-17T13:06:55;14.00;99.90
14411;DHT22;7290;50.854;4.354;2023-02-17T13:09:29;13.90;99.90
14411;DHT22;7290;50.854;4.354;2023-02-17T13:12:15;13.90;99.90
14411;DHT22;7290;50.854;4.354;2023-02-17T13:14:44;13.70;99.90
14411;DHT22;7290;50.854;4.354;2023-02-17T13:17:23;13.40;99.90
14411;DHT22;7290;50.854;4.354;2023-02-17T13:20:03;13.60;99.90
14411;DHT22;7290;50.854;4.354;2023-02-17T13:22:29;13.60;99.90
14411;DHT22;7290;50.854;4.354;2023-02-17T13:24:55;13.60;99.90
14411;DHT22;7290;50.854;4.354;2023-02-17T13:27:30;13.60;99.90
14411;DHT22;7290;50.854;4.354;2023-02-17T13:29:58;13.60;99.90
14411;DHT22;7290;50.854;4.354;2023-02-17T13:32:27;13.80;99.90
14411;DHT22;7290;50.854;4.354;2023-02-17T13:35:00;13.90;99.90
14411;DHT22;7290;50.854;4.354;2023-02-17T13:37:38;13.80;99.90
14411;DHT22;7290;50.854;4.354;2023-02-17T13:40:33;13.80;99.90
14411;DHT22;7290;50.854;4.354;2023-02-17T13:43:08;13.70;99.90
14411;DHT22;7290;50.854;4.354;2023-02-17T13:45:39;13.70;99.90
14411;DHT22;7290;50.854;4.354;2023-02-17T13:48:12;13.60;99.90
14411;DHT22;7290;50.854;4.354;2023-02-17T13:50:44;13.80;99.90
14411;DHT22;7290;50.854;4.354;2023-02-17T13:53:27;13.80;99.90
14411;DHT22;7290;50.854;4.354;2023-02-17T13:55:56;13.70;99.90
14411;DHT22;7290;50.854;4.354;2023-02-17T13:58:25;13.60;99.90
14411;DHT22;7290;50.854;4.354;2023-02-17T14:00:53;13.70;99.90
14411;DHT22;7290;50.854;4.354;2023-02-17T14:03:21;13.70;99.90
14411;DHT22;7290;50.854;4.354;2023-02-17T14:05:50;13.90;99.90
14411;DHT22;7290;50.854;4.354;2023-02-17T14:08:27;14.00;99.90
14411;DHT22;7290;50.854;4.354;2023-02-17T14:10:55;14.00;99.90
14411;DHT22;7290;50.854;4.354;2023-02-17T14:13:22;13.90;99.90
14411;DHT22;7290;50.854;4.354;2023-02-17T14:15:51;13.70;99.90
14411;DHT22;7290;50.854;4.354;2023-02-17T14:18:28;13.50;99.90
14411;DHT22;7290;50.854;4.354;2023-02-17T14:21:00;13.50;99.90
14411;DHT22;7290;50.854;4.354;2023-02-17T14:23:27;13.60;99.90
14411;DHT22;7290;50.854;4.354;2023-02-17T14:25:53;13.70;99.90
14411;DHT22;7290;50.854;4.354;2023-02-17T14:28:22;13.60;99.90
14411;DHT22;7290;50.854;4.354;2023-02-17T14:30:49;13.60;99.90
14411;DHT22;7290;50.854;4.354;2023-02-17T14:33:21;13.50;99.90
14411;DHT22;7290;50.854;4.354;2023-02-17T14:35:52;13.40;99.90
14411;DHT22;7290;50.854;4.354;2023-02-17T14:38:21;13.50;99.90
14411;DHT22;7290;50.854;4.354;2023-02-17T14:40:48;13.60;99.90
14411;DHT22;7290;50.854;4.354;2023-02-17T14:43:14;13.60;99.90
14411;DHT22;7290;50.854;4.354;2023-02-17T14:45:41;13.70;99.90
14411;DHT22;7290;50.854;4.354;2023-02-17T14:48:07;13.70;99.90
14411;DHT22;7290;50.854;4.354;2023-02-17T14:50:34;13.60;99.90
14411;DHT22;7290;50.854;4.354;2023-02-17T14:53:10;13.50;99.90
14411;DHT22;7290;50.854;4.354;2023-02-17T14:55:43;13.60;99.90
14411;DHT22;7290;50.854;4.354;2023-02-17T14:58:16;13.50;99.90
14411;DHT22;7290;50.854;4.354;2023-02-17T15:00:43;13.50;99.90
14411;DHT22;7290;50.854;4.354;2023-02-17T15:03:09;13.60;99.90
14411;DHT22;7290;50.854;4.354;2023-02-17T15:05:35;13.50;99.90
14411;DHT22;7290;50.854;4.354;2023-02-17T15:08:01;13.60;99.90
14411;DHT22;7290;50.854;4.354;2023-02-17T15:10:28;13.50;99.90
14411;DHT22;7290;50.854;4.354;2023-02-17T15:12:55;13.50;99.90
14411;DHT22;7290;50.854;4.354;2023-02-17T15:15:22;13.30;99.90
14411;DHT22;7290;50.854;4.354;2023-02-17T15:17:50;13.30;99.90
14411;DHT22;7290;50.854;4.354;2023-02-17T15:20:16;13.30;99.90
14411;DHT22;7290;50.854;4.354;2023-02-17T15:22:42;13.30;99.90
14411;DHT22;7290;50.854;4.354;2023-02-17T15:25:12;13.30;99.90
14411;DHT22;7290;50.854;4.354;2023-02-17T15:27:39;13.30;99.90
14411;DHT22;7290;50.854;4.354;2023-02-17T15:30:09;13.40;99.90
14411;DHT22;7290;50.854;4.354;2023-02-17T15:32:36;13.40;99.90
14411;DHT22;7290;50.854;4.354;2023-02-17T15:35:04;13.30;99.90
14411;DHT22;7290;50.854;4.354;2023-02-17T15:37:34;13.40;99.90
14411;DHT22;7290;50.854;4.354;2023-02-17T15:40:00;13.40;99.90
14411;DHT22;7290;50.854;4.354;2023-02-17T15:42:26;13.20;99.90
14411;DHT22;7290;50.854;4.354;2023-02-17T15:44:52;13.20;99.90
14411;DHT22;7290;50.854;4.354;2023-02-17T15:47:19;13.30;99.90
14411;DHT22;7290;50.854;4.354;2023-02-17T15:49:45;13.20;99.90
14411;DHT22;7290;50.854;4.354;2023-02-17T15:52:12;13.20;99.90
14411;DHT22;7290;50.854;4.354;2023-02-17T15:54:38;13.20;99.90
14411;DHT22;7290;50.854;4.354;2023-02-17T15:57:05;13.00;99.90
14411;DHT22;7290;50.854;4.354;2023-02-17T15:59:32;13.00;99.90
14411;DHT22;7290;50.854;4.354;2023-02-17T16:01:59;13.00;99.90
14411;DHT22;7290;50.854;4.354;2023-02-17T16:04:27;13.10;99.90